Time;durP1;ratioP1;P1;durP2;ratioP2;P2;SDS_P1;SDS_P2;PMS_P1;PMS_P2;Temp;Humidity;BMP_temperature;BMP_pressure;BME280_temperature;BME280_humidity;BME280_pressure;Samples;Min_cycle;Max_cycle;Signal;HPM_P1;HPM_P2
2021/08/05 00:01:45;;;;;;;2.30;2.10;;;16.10;99.90;;;;;;5034503;28;20108;-63
2021/08/05 00:04:11;;;;;;;2.30;2.00;;;16.10;99.90;;;;;;5034297;28;20117;-63
2021/08/05 00:06:37;;;;;;;3.10;2.05;;;16.00;99.90;;;;;;5034899;28;20386;-63
2021/08/05 00:09:03;;;;;;;2.22;2.03;;;16.00;99.90;;;;;;5034301;28;20037;-63
2021/08/05 00:11:29;;;;;;;2.17;1.80;;;16.00;99.90;;;;;;5035656;28;20081;-63
2021/08/05 00:13:54;;;;;;;5.53;1.95;;;15.90;99.90;;;;;;5035574;28;20474;-63
2021/08/05 00:16:21;;;;;;;4.53;2.05;;;15.90;99.90;;;;;;5034887;28;20018;-63
2021/08/05 00:18:47;;;;;;;2.85;1.80;;;15.90;99.90;;;;;;5035453;28;20033;-63
2021/08/05 00:21:15;;;;;;;3.10;2.03;;;15.80;99.90;;;;;;5034476;28;20083;-64
2021/08/05 00:23:41;;;;;;;2.55;1.90;;;15.80;99.90;;;;;;5035218;28;20455;-64
2021/08/05 00:26:06;;;;;;;2.47;2.00;;;15.80;99.90;;;;;;5034283;28;20025;-63
2021/08/05 00:28:33;;;;;;;3.60;2.53;;;15.80;99.90;;;;;;5035194;28;20030;-63
2021/08/05 00:30:59;;;;;;;2.50;2.10;;;15.80;99.90;;;;;;5034416;28;20455;-65
2021/08/05 00:33:25;;;;;;;3.45;2.20;;;15.80;99.90;;;;;;5034837;28;20052;-64
2021/08/05 00:35:50;;;;;;;2.42;2.17;;;15.70;99.90;;;;;;5034932;28;20029;-64
2021/08/05 00:38:16;;;;;;;5.60;2.33;;;15.70;99.90;;;;;;5033492;28;20041;-63
2021/08/05 00:40:42;;;;;;;2.88;2.28;;;15.70;99.90;;;;;;5035097;28;20037;-63
2021/08/05 00:43:07;;;;;;;2.17;1.95;;;15.70;99.90;;;;;;5034213;28;20079;-64
2021/08/05 00:45:33;;;;;;;3.40;2.13;;;15.70;99.90;;;;;;5033886;28;20034;-63
2021/08/05 00:47:59;;;;;;;4.55;2.25;;;15.70;99.90;;;;;;5034282;28;20026;-65
2021/08/05 00:50:24;;;;;;;3.03;2.22;;;15.60;99.90;;;;;;5034907;28;20474;-63
2021/08/05 00:52:50;;;;;;;5.22;2.40;;;15.60;99.90;;;;;;5034708;28;20490;-63
2021/08/05 00:55:16;;;;;;;3.25;2.30;;;15.60;99.90;;;;;;5033866;28;20026;-64
2021/08/05 00:57:42;;;;;;;2.53;2.33;;;15.60;99.90;;;;;;5034290;28;20057;-63
2021/08/05 01:00:09;;;;;;;2.88;2.22;;;15.60;99.90;;;;;;5034034;28;20025;-63
2021/08/05 01:02:40;;;;;;;3.42;2.17;;;15.50;99.90;;;;;;5035341;28;20078;-64
2021/08/05 01:05:07;;;;;;;2.67;2.38;;;15.50;99.90;;;;;;5033810;28;20040;-64
2021/08/05 01:07:43;;;;;;;5.20;2.05;;;15.50;99.90;;;;;;5034415;28;20021;-64
2021/08/05 01:10:11;;;;;;;3.53;2.40;;;15.50;99.90;;;;;;5033550;28;20076;-64
2021/08/05 01:13:04;;;;;;;3.78;2.30;;;15.50;99.90;;;;;;5034458;28;20382;-63
2021/08/05 01:15:30;;;;;;;4.25;2.22;;;15.50;99.90;;;;;;5034584;28;20033;-63
2021/08/05 01:18:20;;;;;;;2.78;2.30;;;15.50;99.90;;;;;;5034454;28;20040;-63
2021/08/05 01:20:45;;;;;;;2.63;2.27;;;15.40;99.90;;;;;;5034356;28;20029;-63
2021/08/05 01:23:41;;;;;;;3.78;2.45;;;15.50;99.90;;;;;;5033283;28;20554;-63
2021/08/05 01:26:23;;;;;;;2.50;2.30;;;15.40;99.90;;;;;;5033291;28;20072;-63
2021/08/05 01:28:50;;;;;;;3.03;1.90;;;15.40;99.90;;;;;;5034228;28;20083;-63
2021/08/05 01:31:17;;;;;;;3.03;2.00;;;15.40;99.90;;;;;;5033359;28;20046;-63
2021/08/05 01:33:46;;;;;;;5.78;2.45;;;15.40;99.90;;;;;;5034022;28;20053;-63
2021/08/05 01:36:12;;;;;;;3.25;2.30;;;15.40;99.90;;;;;;5032914;28;20152;-63
2021/08/05 01:38:39;;;;;;;3.58;2.55;;;15.40;99.90;;;;;;5033750;28;20053;-63
2021/08/05 01:41:06;;;;;;;3.90;2.20;;;15.40;99.90;;;;;;5033532;28;20045;-63
2021/08/05 01:43:33;;;;;;;2.65;2.35;;;15.40;99.90;;;;;;5033826;28;20022;-63
2021/08/05 01:45:59;;;;;;;4.40;2.33;;;15.30;99.90;;;;;;5033273;28;20474;-65
2021/08/05 01:48:25;;;;;;;4.22;2.08;;;15.30;99.90;;;;;;5033427;28;20033;-63
2021/08/05 01:50:52;;;;;;;2.67;2.42;;;15.30;99.90;;;;;;5033779;28;20025;-63
2021/08/05 01:53:18;;;;;;;3.45;2.47;;;15.30;99.90;;;;;;5032988;28;20368;-63
2021/08/05 01:55:46;;;;;;;2.75;2.05;;;15.30;99.90;;;;;;5033503;28;20087;-63
2021/08/05 01:58:12;;;;;;;3.50;2.30;;;15.20;99.90;;;;;;5032922;28;20112;-63
2021/08/05 02:00:38;;;;;;;2.78;2.20;;;15.20;99.90;;;;;;5033593;28;20021;-63
2021/08/05 02:03:05;;;;;;;3.67;2.28;;;15.20;99.90;;;;;;5032780;28;20035;-64
2021/08/05 02:06:16;;;;;;;3.25;2.15;;;15.20;99.90;;;;;;5033419;28;20021;-64
2021/08/05 02:08:52;;;;;;;4.50;2.42;;;15.20;99.90;;;;;;5032592;28;20482;-63
2021/08/05 02:11:24;;;;;;;3.10;2.13;;;15.20;99.90;;;;;;5032330;28;20115;-63
2021/08/05 02:13:51;;;;;;;4.35;2.60;;;15.20;99.90;;;;;;5033340;28;20041;-63
2021/08/05 02:16:19;;;;;;;2.92;2.03;;;15.20;99.90;;;;;;5032405;28;20029;-64
2021/08/05 02:18:46;;;;;;;4.35;2.53;;;15.20;99.90;;;;;;5033195;28;20064;-63
2021/08/05 02:21:19;;;;;;;4.53;2.35;;;15.20;99.90;;;;;;5032073;28;20112;-63
2021/08/05 02:23:45;;;;;;;2.72;2.15;;;15.20;99.90;;;;;;5032953;28;20026;-63
2021/08/05 02:26:11;;;;;;;2.72;2.28;;;15.20;99.90;;;;;;5030945;28;20368;-63
2021/08/05 02:28:37;;;;;;;2.63;2.42;;;15.30;99.90;;;;;;5033225;28;20040;-63
2021/08/05 02:31:04;;;;;;;2.97;2.38;;;15.30;99.90;;;;;;5032201;28;20032;-63
2021/08/05 02:33:31;;;;;;;3.53;2.40;;;15.30;99.90;;;;;;5033050;28;20030;-63
2021/08/05 02:35:58;;;;;;;3.42;2.20;;;15.30;99.90;;;;;;5033091;28;20034;-64
2021/08/05 02:38:25;;;;;;;2.60;2.40;;;15.30;99.90;;;;;;5031586;28;20816;-63
2021/08/05 02:40:52;;;;;;;2.80;2.22;;;15.30;99.90;;;;;;5032586;28;20039;-63
2021/08/05 02:43:19;;;;;;;2.42;2.22;;;15.30;99.90;;;;;;5031743;28;20407;-64
2021/08/05 02:45:47;;;;;;;2.35;1.80;;;15.20;99.90;;;;;;5032648;28;20030;-63
2021/08/05 02:48:13;;;;;;;3.70;2.40;;;15.20;99.90;;;;;;5031691;28;20044;-63
2021/08/05 02:50:40;;;;;;;2.55;2.35;;;15.10;99.90;;;;;;5032961;28;20491;-63
2021/08/05 02:53:06;;;;;;;3.45;2.42;;;15.10;99.90;;;;;;5031496;28;20539;-64
2021/08/05 02:55:32;;;;;;;4.25;3.05;;;15.10;99.90;;;;;;5032677;28;20125;-65
2021/08/05 02:57:59;;;;;;;3.17;2.60;;;15.10;99.90;;;;;;5032766;28;20033;-63
2021/08/05 03:00:25;;;;;;;7.68;2.97;;;15.00;99.90;;;;;;5031897;28;20025;-63
2021/08/05 03:02:51;;;;;;;3.03;2.67;;;15.00;99.90;;;;;;5032450;28;20034;-63
2021/08/05 03:05:18;;;;;;;3.55;2.83;;;15.00;99.90;;;;;;5031394;28;20132;-63
2021/08/05 03:07:44;;;;;;;2.80;2.53;;;14.90;99.90;;;;;;5032355;28;20034;-63
2021/08/05 03:10:15;;;;;;;3.33;2.47;;;14.90;99.90;;;;;;5031118;28;20120;-63
2021/08/05 03:12:41;;;;;;;3.30;2.72;;;14.80;99.90;;;;;;5031974;28;20034;-63
2021/08/05 03:15:07;;;;;;;3.85;2.60;;;14.70;99.90;;;;;;5031537;28;20638;-63
2021/08/05 03:17:33;;;;;;;2.80;2.50;;;14.70;99.90;;;;;;5032556;28;20033;-63
2021/08/05 03:19:59;;;;;;;2.35;2.15;;;14.70;99.90;;;;;;5032257;28;20033;-63
2021/08/05 03:22:24;;;;;;;3.85;2.20;;;14.60;99.90;;;;;;5031316;28;20026;-63
2021/08/05 03:24:50;;;;;;;2.70;2.50;;;14.60;99.90;;;;;;5032152;28;20029;-63
2021/08/05 03:27:16;;;;;;;3.35;2.22;;;14.60;99.90;;;;;;5030773;28;20029;-63
2021/08/05 03:29:41;;;;;;;4.50;2.58;;;14.50;99.90;;;;;;5032062;28;20033;-63
2021/08/05 03:32:07;;;;;;;2.95;2.17;;;14.50;99.90;;;;;;5031471;28;20026;-63
2021/08/05 03:34:33;;;;;;;2.47;2.22;;;14.50;99.90;;;;;;5031701;28;20482;-63
2021/08/05 03:36:59;;;;;;;4.90;3.00;;;14.50;99.90;;;;;;5031259;28;20113;-63
2021/08/05 03:39:24;;;;;;;2.97;2.63;;;14.40;99.90;;;;;;5030908;28;20556;-63
2021/08/05 03:41:51;;;;;;;2.35;2.15;;;14.50;99.90;;;;;;5031719;28;20033;-64
2021/08/05 03:44:17;;;;;;;4.28;2.30;;;14.50;99.90;;;;;;5030843;28;20021;-64
2021/08/05 03:46:43;;;;;;;4.38;2.60;;;14.50;99.90;;;;;;5031588;28;20083;-64
2021/08/05 03:49:09;;;;;;;3.15;2.53;;;14.40;99.90;;;;;;5030793;28;20116;-64
2021/08/05 03:51:34;;;;;;;3.33;2.63;;;14.40;99.90;;;;;;5032018;28;20044;-64
2021/08/05 03:54:00;;;;;;;3.70;2.63;;;14.40;99.90;;;;;;5031506;28;20037;-64
2021/08/05 03:56:26;;;;;;;4.10;2.15;;;14.40;99.90;;;;;;5030665;28;20865;-64
2021/08/05 03:58:52;;;;;;;2.42;2.10;;;14.40;99.90;;;;;;5031788;28;20030;-64
2021/08/05 04:01:18;;;;;;;4.80;2.53;;;14.30;99.90;;;;;;5030911;28;20038;-64
2021/08/05 04:03:43;;;;;;;3.63;2.55;;;14.30;99.90;;;;;;5031714;28;20030;-64
2021/08/05 04:06:10;;;;;;;6.28;2.50;;;14.30;99.90;;;;;;5030687;28;20041;-64
2021/08/05 04:08:36;;;;;;;3.20;2.45;;;14.30;99.90;;;;;;5031187;28;20041;-64
2021/08/05 04:11:02;;;;;;;5.90;2.72;;;14.30;99.90;;;;;;5031641;28;20109;-64
2021/08/05 04:13:28;;;;;;;2.65;2.38;;;14.30;99.90;;;;;;5030730;28;20602;-64
2021/08/05 04:15:54;;;;;;;3.85;2.83;;;14.30;99.90;;;;;;5031446;28;20116;-64
2021/08/05 04:18:19;;;;;;;5.25;2.75;;;14.30;99.90;;;;;;5030769;28;20052;-64
2021/08/05 04:20:45;;;;;;;3.28;2.72;;;14.30;99.90;;;;;;5031586;28;20069;-64
2021/08/05 04:23:11;;;;;;;4.38;2.65;;;14.20;99.90;;;;;;5030118;28;20363;-64
2021/08/05 04:25:36;;;;;;;2.85;2.60;;;14.20;99.90;;;;;;5031698;28;20029;-64
2021/08/05 04:28:02;;;;;;;3.90;2.88;;;14.20;99.90;;;;;;5031277;28;20031;-63
2021/08/05 04:30:28;;;;;;;2.70;2.50;;;14.30;99.90;;;;;;5030006;28;20398;-64
2021/08/05 04:32:54;;;;;;;3.15;2.85;;;14.30;99.90;;;;;;5030392;28;20451;-64
2021/08/05 04:35:19;;;;;;;3.40;2.63;;;14.50;99.90;;;;;;5029624;28;20467;-64
2021/08/05 04:37:57;;;;;;;3.08;2.78;;;14.50;99.90;;;;;;5029768;28;20051;-64
2021/08/05 04:40:25;;;;;;;4.80;2.90;;;14.70;99.90;;;;;;5028139;28;20075;-63
2021/08/05 04:42:51;;;;;;;7.35;2.97;;;14.80;99.90;;;;;;5029857;28;20025;-64
2021/08/05 04:45:17;;;;;;;4.30;3.45;;;14.90;99.90;;;;;;5029717;28;20021;-64
2021/08/05 04:47:54;;;;;;;6.20;3.00;;;15.00;99.90;;;;;;5029960;28;20025;-64
2021/08/05 04:50:20;;;;;;;3.80;3.40;;;15.10;99.90;;;;;;5031079;28;20084;-64
2021/08/05 04:52:46;;;;;;;4.50;3.50;;;15.20;99.90;;;;;;5033895;28;20071;-65
2021/08/05 04:55:12;;;;;;;3.92;3.17;;;15.30;99.90;;;;;;5032863;28;20367;-64
2021/08/05 04:57:52;;;;;;;4.85;3.05;;;15.40;99.90;;;;;;5033786;28;20029;-64
2021/08/05 05:00:39;;;;;;;3.10;2.80;;;15.50;99.90;;;;;;5030680;28;20108;-63
2021/08/05 05:03:05;;;;;;;4.72;2.80;;;15.50;99.90;;;;;;5031865;28;20120;-65
2021/08/05 05:05:32;;;;;;;3.75;3.10;;;15.60;99.90;;;;;;5032866;28;20027;-64
2021/08/05 05:08:11;;;;;;;4.47;2.55;;;15.60;99.90;;;;;;5033288;28;20036;-64
2021/08/05 05:10:37;;;;;;;3.47;2.33;;;15.70;99.90;;;;;;5031232;28;20038;-64
2021/08/05 05:13:03;;;;;;;4.43;3.10;;;15.70;99.90;;;;;;5032861;28;20031;-63
2021/08/05 05:15:28;;;;;;;4.60;2.63;;;15.80;99.90;;;;;;5032168;28;20041;-64
2021/08/05 05:17:54;;;;;;;3.47;2.92;;;15.80;99.90;;;;;;5030368;28;20104;-63
2021/08/05 05:20:20;;;;;;;4.55;2.55;;;15.90;99.90;;;;;;5032678;28;20033;-64
2021/08/05 05:22:45;;;;;;;4.43;2.65;;;15.90;99.90;;;;;;5034263;28;20458;-65
2021/08/05 05:25:12;;;;;;;4.85;2.92;;;16.00;99.90;;;;;;5032844;28;20451;-66
2021/08/05 05:27:39;;;;;;;3.30;3.00;;;16.00;99.90;;;;;;5034260;28;20032;-65
2021/08/05 05:30:06;;;;;;;4.70;2.72;;;16.10;99.90;;;;;;5033512;28;20184;-66
2021/08/05 05:32:31;;;;;;;4.97;3.08;;;16.10;99.90;;;;;;5033591;28;20033;-66
2021/08/05 05:34:58;;;;;;;7.40;3.78;;;16.10;99.90;;;;;;5033664;28;20036;-69
2021/08/05 05:37:24;;;;;;;6.75;3.35;;;16.10;99.90;;;;;;5033045;28;20037;-70
2021/08/05 05:39:51;;;;;;;5.25;3.35;;;16.20;99.90;;;;;;5033667;28;20053;-72
2021/08/05 05:42:18;;;;;;;4.70;3.20;;;16.10;99.90;;;;;;5038232;28;20080;-69
2021/08/05 05:44:44;;;;;;;6.80;3.50;;;16.10;99.90;;;;;;5033757;28;20026;-70
2021/08/05 05:47:10;;;;;;;3.28;2.97;;;16.20;99.90;;;;;;5033497;28;20375;-72
2021/08/05 05:49:35;;;;;;;5.13;3.25;;;16.10;99.90;;;;;;5033586;28;20528;-71
2021/08/05 05:52:01;;;;;;;4.32;3.55;;;16.10;99.90;;;;;;5034039;28;20422;-76
2021/08/05 05:54:27;;;;;;;6.30;3.40;;;16.10;99.90;;;;;;5032864;28;20029;-69
2021/08/05 05:56:53;;;;;;;4.88;3.20;;;16.20;99.90;;;;;;5033816;28;20059;-75
2021/08/05 05:59:18;;;;;;;5.95;3.42;;;16.20;99.90;;;;;;5032532;28;20041;-72
2021/08/05 06:01:44;;;;;;;4.88;2.92;;;16.20;99.90;;;;;;5033188;28;20094;-66
2021/08/05 06:04:09;;;;;;;4.40;3.38;;;16.20;99.90;;;;;;5033083;28;20151;-67
2021/08/05 06:06:35;;;;;;;4.85;3.00;;;16.20;99.90;;;;;;5033298;28;20521;-72
2021/08/05 06:09:02;;;;;;;3.88;3.17;;;16.20;99.90;;;;;;5032964;28;20537;-68
2021/08/05 06:11:29;;;;;;;3.25;2.63;;;16.20;99.90;;;;;;5032559;28;20069;-75
2021/08/05 06:13:56;;;;;;;5.95;3.00;;;16.20;99.90;;;;;;5033542;28;20032;-74
2021/08/05 06:16:22;;;;;;;5.28;2.80;;;16.30;99.90;;;;;;5032269;28;20037;-75
2021/08/05 06:18:49;;;;;;;4.95;3.00;;;16.40;99.90;;;;;;5033268;28;20114;-72
2021/08/05 06:21:15;;;;;;;3.97;2.72;;;16.60;99.90;;;;;;5032234;28;20148;-66
2021/08/05 06:23:40;;;;;;;3.25;2.80;;;16.80;99.90;;;;;;5028723;28;20097;-67
2021/08/05 06:26:06;;;;;;;2.53;2.17;;;17.00;99.90;;;;;;5034028;28;20033;-67
2021/08/05 06:28:33;;;;;;;4.20;2.63;;;17.20;99.90;;;;;;5032760;28;20041;-66
2021/08/05 06:31:00;;;;;;;7.13;2.28;;;17.40;99.90;;;;;;5032509;28;20037;-67
2021/08/05 06:33:25;;;;;;;8.25;3.00;;;17.70;99.90;;;;;;5032107;28;20518;-67
2021/08/05 06:35:51;;;;;;;5.05;2.67;;;17.80;99.90;;;;;;5032467;28;20033;-67
2021/08/05 06:38:17;;;;;;;3.17;2.42;;;18.00;99.90;;;;;;5030341;28;20039;-67
2021/08/05 06:40:43;;;;;;;5.10;2.83;;;18.10;99.90;;;;;;5032741;28;20356;-67
2021/08/05 06:43:09;;;;;;;10.70;2.75;;;18.30;99.90;;;;;;5032526;28;20079;-67
2021/08/05 06:45:35;;;;;;;2.83;2.30;;;18.50;99.90;;;;;;5031765;28;20018;-67
2021/08/05 06:48:00;;;;;;;2.88;2.03;;;18.60;99.90;;;;;;5032347;28;20498;-67
2021/08/05 06:50:27;;;;;;;2.65;2.10;;;18.80;99.90;;;;;;5031634;28;20068;-67
2021/08/05 06:52:53;;;;;;;3.03;2.67;;;18.90;99.90;;;;;;5043128;28;20032;-67
2021/08/05 06:55:19;;;;;;;3.22;2.60;;;19.10;99.90;;;;;;5050915;28;20549;-67
2021/08/05 06:57:46;;;;;;;4.07;2.90;;;19.10;99.90;;;;;;5052362;28;20056;-67
2021/08/05 07:00:12;;;;;;;2.88;2.13;;;19.10;99.90;;;;;;5051053;28;20025;-67
2021/08/05 07:02:38;;;;;;;6.10;2.28;;;19.20;99.90;;;;;;5035096;28;20029;-67
2021/08/05 07:05:05;;;;;;;6.65;2.40;;;19.20;99.90;;;;;;5032291;28;20067;-67
2021/08/05 07:07:31;;;;;;;2.78;2.45;;;19.30;99.90;;;;;;5031477;28;20712;-67
2021/08/05 07:09:58;;;;;;;4.07;2.53;;;19.30;99.90;;;;;;5031996;28;20037;-66
2021/08/05 07:12:24;;;;;;;4.57;2.15;;;19.40;99.90;;;;;;5031072;28;20363;-67
2021/08/05 07:14:50;;;;;;;2.60;2.20;;;19.60;99.90;;;;;;5032292;28;20017;-66
2021/08/05 07:17:15;;;;;;;3.03;2.70;;;19.70;99.70;;;;;;5030867;28;20030;-66
2021/08/05 07:19:42;;;;;;;2.80;2.30;;;19.80;98.90;;;;;;5032176;28;20099;-67
2021/08/05 07:22:08;;;;;;;2.53;2.33;;;19.90;98.60;;;;;;5036633;28;20454;-68
2021/08/05 07:24:34;;;;;;;4.15;2.45;;;19.90;98.60;;;;;;5051216;28;20031;-67
2021/08/05 07:27:00;;;;;;;3.28;2.10;;;20.00;97.90;;;;;;5051886;28;20029;-67
2021/08/05 07:29:28;;;;;;;2.58;2.38;;;20.00;97.60;;;;;;5050643;28;20044;-67
2021/08/05 07:31:55;;;;;;;2.10;1.90;;;20.10;97.20;;;;;;5045338;28;20032;-68
2021/08/05 07:34:21;;;;;;;4.40;2.38;;;20.30;96.90;;;;;;5030806;28;20036;-67
2021/08/05 07:36:47;;;;;;;3.88;2.42;;;20.30;96.00;;;;;;5031376;28;20101;-67
2021/08/05 07:39:12;;;;;;;3.58;2.53;;;20.30;96.00;;;;;;5030981;28;20479;-68
2021/08/05 07:41:40;;;;;;;3.83;2.58;;;20.30;96.10;;;;;;5031090;28;20459;-67
2021/08/05 07:44:07;;;;;;;4.38;2.90;;;20.40;95.70;;;;;;5031710;28;20513;-67
2021/08/05 07:46:33;;;;;;;3.45;2.40;;;20.50;95.60;;;;;;5030408;28;20029;-67
2021/08/05 07:48:59;;;;;;;2.35;1.88;;;20.60;95.30;;;;;;5031664;28;20033;-67
2021/08/05 07:51:24;;;;;;;4.97;2.47;;;20.70;94.80;;;;;;5030451;28;20490;-66
2021/08/05 07:53:50;;;;;;;4.90;2.10;;;20.90;94.60;;;;;;5050672;28;20070;-67
2021/08/05 07:56:16;;;;;;;3.28;2.30;;;21.00;93.60;;;;;;5050419;28;20071;-67
2021/08/05 07:58:41;;;;;;;8.35;3.70;;;21.20;92.60;;;;;;5030486;28;20532;-67
2021/08/05 08:01:07;;;;;;;5.70;2.60;;;21.30;92.70;;;;;;5032428;28;20076;-66
2021/08/05 08:03:33;;;;;;;2.30;2.10;;;21.40;92.20;;;;;;5032121;28;20078;-67
2021/08/05 08:05:58;;;;;;;2.40;2.20;;;21.40;92.00;;;;;;5031107;28;20029;-67
2021/08/05 08:08:25;;;;;;;3.63;2.25;;;21.40;91.90;;;;;;5030208;28;20068;-67
2021/08/05 08:10:51;;;;;;;3.85;2.10;;;21.30;91.80;;;;;;5031126;28;20073;-67
2021/08/05 08:13:16;;;;;;;2.78;2.20;;;21.30;91.80;;;;;;5026282;28;20494;-67
2021/08/05 08:15:42;;;;;;;5.60;2.58;;;21.30;92.00;;;;;;5032670;28;20034;-66
2021/08/05 08:18:08;;;;;;;2.72;2.00;;;21.40;91.10;;;;;;5032500;28;20110;-67
2021/08/05 08:20:34;;;;;;;3.60;2.28;;;21.30;91.20;;;;;;5030186;28;20026;-67
2021/08/05 08:23:00;;;;;;;2.95;2.28;;;21.10;91.30;;;;;;5030478;28;20029;-67
2021/08/05 08:25:25;;;;;;;5.75;2.85;;;21.10;91.70;;;;;;5032776;28;20132;-67
2021/08/05 08:27:51;;;;;;;2.90;1.92;;;21.10;91.70;;;;;;5034578;28;20104;-66
2021/08/05 08:30:17;;;;;;;4.88;2.25;;;21.10;91.50;;;;;;5033691;28;20091;-67
2021/08/05 08:32:44;;;;;;;5.55;2.65;;;21.00;91.70;;;;;;5034278;28;20125;-67
2021/08/05 08:35:10;;;;;;;10.65;3.75;;;20.90;91.50;;;;;;5035120;28;20049;-67
2021/08/05 08:37:36;;;;;;;6.63;3.63;;;20.90;92.30;;;;;;5034440;28;20045;-67
2021/08/05 08:40:03;;;;;;;5.68;2.38;;;20.90;92.40;;;;;;5034505;28;20107;-67
2021/08/05 08:42:29;;;;;;;7.78;2.50;;;20.80;92.90;;;;;;5033596;28;20434;-67
2021/08/05 08:44:55;;;;;;;4.80;1.98;;;20.80;93.30;;;;;;5032920;28;20029;-67
2021/08/05 08:47:22;;;;;;;2.47;2.28;;;20.80;94.00;;;;;;5032985;28;20079;-67
2021/08/05 08:49:50;;;;;;;6.97;2.40;;;20.70;94.10;;;;;;5034364;28;20076;-67
2021/08/05 08:52:19;;;;;;;1.88;1.75;;;20.80;93.80;;;;;;5033103;28;20083;-67
2021/08/05 08:54:47;;;;;;;2.38;1.95;;;20.70;93.70;;;;;;5034709;28;20383;-67
2021/08/05 08:57:16;;;;;;;4.97;2.05;;;20.80;94.00;;;;;;5034384;28;20112;-67
2021/08/05 08:59:44;;;;;;;3.33;2.15;;;20.90;93.50;;;;;;5033941;28;20033;-67
2021/08/05 09:02:11;;;;;;;2.83;1.60;;;21.10;92.90;;;;;;5033915;28;20041;-67
2021/08/05 09:04:38;;;;;;;3.60;1.95;;;21.10;92.50;;;;;;5033211;28;20577;-67
2021/08/05 09:07:04;;;;;;;2.67;1.90;;;21.20;92.30;;;;;;5033510;28;20091;-67
2021/08/05 09:09:30;;;;;;;1.90;1.70;;;21.30;91.30;;;;;;5033288;28;20463;-67
2021/08/05 09:11:55;;;;;;;1.80;1.70;;;21.20;90.90;;;;;;5033980;28;20034;-67
2021/08/05 09:14:46;;;;;;;2.92;1.88;;;21.30;90.80;;;;;;5033389;28;20112;-68
2021/08/05 09:17:32;;;;;;;2.85;1.80;;;21.40;89.80;;;;;;5034391;28;20032;-67
2021/08/05 09:20:00;;;;;;;5.20;2.10;;;21.60;88.40;;;;;;5035052;28;20069;-67
2021/08/05 09:22:28;;;;;;;4.53;2.17;;;21.90;87.40;;;;;;5031460;28;20033;-68
2021/08/05 09:24:54;;;;;;;4.07;2.05;;;22.00;86.90;;;;;;5032644;28;20378;-67
2021/08/05 09:27:31;;;;;;;8.52;2.28;;;22.20;85.40;;;;;;5033108;28;20108;-67
2021/08/05 09:29:58;;;;;;;4.35;2.25;;;22.30;84.10;;;;;;5034138;28;20084;-67
2021/08/05 09:32:29;;;;;;;2.50;1.90;;;22.30;82.90;;;;;;5032950;28;20032;-68
2021/08/05 09:35:07;;;;;;;2.22;1.83;;;22.20;82.60;;;;;;5033245;28;20061;-67
2021/08/05 09:37:37;;;;;;;4.75;1.80;;;22.20;82.90;;;;;;5032553;28;20068;-67
2021/08/05 09:40:14;;;;;;;2.63;2.13;;;22.20;82.80;;;;;;5033794;28;20065;-67
2021/08/05 09:42:56;;;;;;;1.92;1.70;;;22.10;83.50;;;;;;5032617;28;20748;-67
2021/08/05 09:45:36;;;;;;;2.72;1.65;;;22.00;83.00;;;;;;5033248;28;20032;-67
2021/08/05 09:48:02;;;;;;;3.80;1.73;;;21.80;82.30;;;;;;5033271;28;20018;-67
2021/08/05 09:50:28;;;;;;;1.88;1.45;;;21.90;82.70;;;;;;5032894;28;20037;-67
2021/08/05 09:53:10;;;;;;;2.60;1.73;;;21.90;82.90;;;;;;5044573;28;20360;-67
2021/08/05 09:55:35;;;;;;;3.67;1.60;;;22.20;82.90;;;;;;5052958;28;20036;-67
2021/08/05 09:58:03;;;;;;;3.45;1.50;;;22.60;81.10;;;;;;5053233;28;20029;-67
2021/08/05 10:00:41;;;;;;;3.97;1.70;;;23.10;76.90;;;;;;5052230;28;20111;-67
2021/08/05 10:03:07;;;;;;;3.20;1.65;;;23.40;75.50;;;;;;5053183;28;20091;-66
2021/08/05 10:05:33;;;;;;;1.50;1.23;;;23.50;75.10;;;;;;5052238;28;20511;-67
2021/08/05 10:08:01;;;;;;;2.72;1.50;;;23.80;72.10;;;;;;5052755;28;20033;-66
2021/08/05 10:10:46;;;;;;;2.50;1.70;;;23.90;71.00;;;;;;5035904;28;20037;-66
2021/08/05 10:13:12;;;;;;;2.15;1.83;;;23.90;72.20;;;;;;5032820;28;20025;-66
2021/08/05 10:15:52;;;;;;;3.10;1.40;;;23.80;71.50;;;;;;5030686;28;20391;-66
2021/08/05 10:18:18;;;;;;;2.45;1.40;;;23.70;71.00;;;;;;5033083;28;20030;-67
2021/08/05 10:20:44;;;;;;;3.70;1.30;;;23.50;71.40;;;;;;5031789;28;20068;-67
2021/08/05 10:23:11;;;;;;;1.40;1.30;;;23.50;72.00;;;;;;5045646;28;20482;-67
2021/08/05 10:25:37;;;;;;;1.50;1.27;;;23.40;71.30;;;;;;5051994;28;20037;-67
2021/08/05 10:28:04;;;;;;;1.60;1.50;;;23.40;71.70;;;;;;5052509;28;20040;-67
2021/08/05 10:30:30;;;;;;;1.80;1.17;;;23.30;71.70;;;;;;5052457;28;20048;-67
2021/08/05 10:32:56;;;;;;;3.78;1.60;;;23.30;71.40;;;;;;5052914;28;20025;-67
2021/08/05 10:35:23;;;;;;;2.17;1.63;;;23.30;72.30;;;;;;5051969;28;20087;-67
2021/08/05 10:37:49;;;;;;;1.20;1.10;;;23.20;72.10;;;;;;5051996;28;20116;-67
2021/08/05 10:40:15;;;;;;;2.28;1.58;;;23.20;71.50;;;;;;5051819;28;20060;-67
2021/08/05 10:42:43;;;;;;;1.65;1.42;;;23.30;71.50;;;;;;5051884;28;20463;-67
2021/08/05 10:45:09;;;;;;;1.20;1.10;;;23.40;72.40;;;;;;5044049;28;20411;-67
2021/08/05 10:47:37;;;;;;;1.40;1.30;;;23.70;70.60;;;;;;5031264;28;20080;-67
2021/08/05 10:50:10;;;;;;;1.20;0.90;;;24.10;69.50;;;;;;5032110;28;20041;-67
2021/08/05 10:52:41;;;;;;;1.70;1.60;;;24.40;67.50;;;;;;5039543;28;20033;-67
2021/08/05 10:55:16;;;;;;;1.17;1.08;;;25.00;66.60;;;;;;5051668;28;20033;-67
2021/08/05 10:57:43;;;;;;;1.08;0.98;;;25.50;64.30;;;;;;5038755;28;20616;-68
2021/08/05 11:00:14;;;;;;;3.33;1.23;;;25.70;63.50;;;;;;5032708;28;20045;-67
2021/08/05 11:02:54;;;;;;;0.95;0.90;;;25.80;61.90;;;;;;5031583;28;20113;-67
2021/08/05 11:05:23;;;;;;;1.17;1.13;;;25.80;61.90;;;;;;5031816;28;20025;-66
2021/08/05 11:07:49;;;;;;;1.27;1.00;;;25.90;62.10;;;;;;5031514;28;20044;-66
2021/08/05 11:10:14;;;;;;;1.08;0.98;;;26.00;61.50;;;;;;5032049;28;20034;-66
2021/08/05 11:12:49;;;;;;;2.20;1.65;;;26.10;61.30;;;;;;5031367;28;20073;-66
2021/08/05 11:15:25;;;;;;;1.35;1.20;;;26.00;61.90;;;;;;5032062;28;20021;-68
2021/08/05 11:18:16;;;;;;;1.20;1.10;;;25.90;62.00;;;;;;5032182;28;20108;-66
2021/08/05 11:20:45;;;;;;;4.03;1.27;;;25.80;61.90;;;;;;5031156;28;20037;-67
2021/08/05 11:23:27;;;;;;;1.15;1.08;;;25.60;62.40;;;;;;5044425;28;20032;-67
2021/08/05 11:25:53;;;;;;;1.85;1.23;;;25.70;62.00;;;;;;5050698;28;20351;-67
2021/08/05 11:28:26;;;;;;;3.25;1.10;;;25.80;61.70;;;;;;5051909;28;20100;-67
2021/08/05 11:30:53;;;;;;;0.80;0.80;;;25.90;62.30;;;;;;5051606;28;20422;-67
2021/08/05 11:33:34;;;;;;;1.48;1.38;;;26.10;61.10;;;;;;5051475;28;20112;-67
2021/08/05 11:36:24;;;;;;;0.88;0.88;;;26.30;60.40;;;;;;5051713;28;20025;-67
2021/08/05 11:38:59;;;;;;;;;;;26.50;59.90;;;;;;5051349;28;20053;-67
2021/08/05 11:41:42;;;;;;;0.88;0.88;;;26.70;59.10;;;;;;5051294;28;19955;-67
2021/08/05 11:44:36;;;;;;;1.30;1.02;;;26.60;59.00;;;;;;5051657;28;20048;-67
2021/08/05 11:47:25;;;;;;;1.52;1.35;;;26.30;58.80;;;;;;5051501;28;20036;-67
2021/08/05 11:49:57;;;;;;;3.92;1.10;;;26.00;60.00;;;;;;5051161;28;20450;-67
2021/08/05 11:52:29;;;;;;;2.35;1.00;;;25.80;60.50;;;;;;5050288;28;20021;-67
2021/08/05 11:55:11;;;;;;;1.30;1.20;;;25.50;61.90;;;;;;5049760;28;20103;-66
2021/08/05 11:57:47;;;;;;;1.65;1.30;;;25.40;62.40;;;;;;5049577;28;20458;-67
2021/08/05 12:00:40;;;;;;;1.48;1.38;;;25.20;63.40;;;;;;5035540;28;20033;-66
2021/08/05 12:03:07;;;;;;;1.45;0.90;;;25.00;64.00;;;;;;5034710;28;20491;-67
2021/08/05 12:05:41;;;;;;;1.30;1.20;;;24.90;65.40;;;;;;5034333;28;20026;-67
2021/08/05 12:08:07;;;;;;;1.15;1.13;;;24.90;65.20;;;;;;5035241;28;20064;-66
2021/08/05 12:10:37;;;;;;;1.20;1.00;;;25.00;63.50;;;;;;5034206;28;20128;-66
2021/08/05 12:13:06;;;;;;;2.30;1.10;;;25.00;64.20;;;;;;5035428;28;20096;-66
2021/08/05 12:15:42;;;;;;;1.30;1.20;;;25.10;64.00;;;;;;5034514;28;20029;-67
2021/08/05 12:18:15;;;;;;;3.92;1.48;;;25.30;63.20;;;;;;5034043;28;20470;-67
2021/08/05 12:20:42;;;;;;;2.83;1.33;;;25.70;63.30;;;;;;5035300;28;20065;-67
2021/08/05 12:23:14;;;;;;;1.23;1.13;;;26.00;61.70;;;;;;5048867;28;20079;-67
2021/08/05 12:25:45;;;;;;;1.88;1.27;;;26.20;62.20;;;;;;5054471;28;20031;-67
2021/08/05 12:28:17;;;;;;;2.65;1.13;;;26.20;62.50;;;;;;5055295;28;20025;-66
2021/08/05 12:30:54;;;;;;;1.55;1.02;;;26.30;62.40;;;;;;5053478;28;20127;-67
2021/08/05 12:33:23;;;;;;;1.63;1.50;;;26.50;62.80;;;;;;5045166;28;20028;-67
2021/08/05 12:36:15;;;;;;;1.23;1.13;;;26.80;61.60;;;;;;5035410;28;20037;-67
2021/08/05 12:38:49;;;;;;;1.20;1.10;;;27.00;59.70;;;;;;5035279;28;20049;-66
2021/08/05 12:41:37;;;;;;;2.13;1.10;;;26.80;60.30;;;;;;5032500;28;20053;-67
2021/08/05 12:44:15;;;;;;;1.48;1.25;;;26.40;61.10;;;;;;5036549;28;20029;-66
2021/08/05 12:46:49;;;;;;;1.35;0.90;;;26.00;60.50;;;;;;5034619;28;20486;-67
2021/08/05 12:49:16;;;;;;;1.30;1.20;;;25.60;60.60;;;;;;5034648;28;20037;-67
2021/08/05 12:51:43;;;;;;;2.35;1.10;;;25.10;62.30;;;;;;5030945;28;20048;-66
2021/08/05 12:54:18;;;;;;;1.27;1.17;;;24.70;62.10;;;;;;5027721;28;20418;-67
2021/08/05 12:56:46;;;;;;;2.67;0.90;;;24.60;62.60;;;;;;5033026;28;20052;-66